sensor_id;sensor_type;location;lat;lon;timestamp;P1;durP1;ratioP1;P2;durP2;ratioP2
71836;SDS011;59686;51.716;7.016;2024-03-07T00:00:04;30.80;;;21.10;;
71836;SDS011;59686;51.716;7.016;2024-03-07T00:02:39;31.33;;;20.97;;
71836;SDS011;59686;51.716;7.016;2024-03-07T00:05:09;31.40;;;21.23;;
71836;SDS011;59686;51.716;7.016;2024-03-07T00:07:35;30.60;;;21.60;;
71836;SDS011;59686;51.716;7.016;2024-03-07T00:10:02;27.50;;;20.23;;
71836;SDS011;59686;51.716;7.016;2024-03-07T00:12:29;30.53;;;21.10;;
71836;SDS011;59686;51.716;7.016;2024-03-07T00:14:55;33.07;;;22.37;;
71836;SDS011;59686;51.716;7.016;2024-03-07T00:17:21;29.40;;;20.90;;
71836;SDS011;59686;51.716;7.016;2024-03-07T00:19:48;33.17;;;22.37;;
71836;SDS011;59686;51.716;7.016;2024-03-07T00:22:14;30.03;;;21.53;;
71836;SDS011;59686;51.716;7.016;2024-03-07T00:24:40;31.77;;;21.47;;
71836;SDS011;59686;51.716;7.016;2024-03-07T00:27:06;29.83;;;21.23;;
71836;SDS011;59686;51.716;7.016;2024-03-07T00:29:32;30.17;;;21.67;;
71836;SDS011;59686;51.716;7.016;2024-03-07T00:32:00;30.50;;;21.43;;
71836;SDS011;59686;51.716;7.016;2024-03-07T00:34:26;32.17;;;22.53;;
71836;SDS011;59686;51.716;7.016;2024-03-07T00:36:52;26.70;;;20.80;;
71836;SDS011;59686;51.716;7.016;2024-03-07T00:39:18;29.87;;;21.37;;
71836;SDS011;59686;51.716;7.016;2024-03-07T00:41:44;29.87;;;21.37;;
71836;SDS011;59686;51.716;7.016;2024-03-07T00:44:10;27.80;;;21.33;;
71836;SDS011;59686;51.716;7.016;2024-03-07T00:46:36;28.93;;;20.87;;
71836;SDS011;59686;51.716;7.016;2024-03-07T00:49:02;29.93;;;21.07;;
71836;SDS011;59686;51.716;7.016;2024-03-07T00:51:28;29.93;;;20.73;;
71836;SDS011;59686;51.716;7.016;2024-03-07T00:53:54;29.80;;;21.20;;
71836;SDS011;59686;51.716;7.016;2024-03-07T00:56:20;33.10;;;21.83;;
71836;SDS011;59686;51.716;7.016;2024-03-07T00:58:50;30.63;;;21.33;;
71836;SDS011;59686;51.716;7.016;2024-03-07T01:01:17;30.63;;;21.00;;
71836;SDS011;59686;51.716;7.016;2024-03-07T01:03:44;29.47;;;20.77;;
71836;SDS011;59686;51.716;7.016;2024-03-07T01:06:09;28.73;;;20.70;;
71836;SDS011;59686;51.716;7.016;2024-03-07T01:08:36;31.67;;;20.73;;
71836;SDS011;59686;51.716;7.016;2024-03-07T01:11:02;28.00;;;19.70;;
71836;SDS011;59686;51.716;7.016;2024-03-07T01:13:38;28.50;;;21.20;;
71836;SDS011;59686;51.716;7.016;2024-03-07T01:16:04;28.00;;;19.60;;
71836;SDS011;59686;51.716;7.016;2024-03-07T01:18:30;29.47;;;21.20;;
71836;SDS011;59686;51.716;7.016;2024-03-07T01:20:58;30.13;;;20.33;;
71836;SDS011;59686;51.716;7.016;2024-03-07T01:23:27;29.67;;;21.60;;
71836;SDS011;59686;51.716;7.016;2024-03-07T01:25:55;27.13;;;20.60;;
71836;SDS011;59686;51.716;7.016;2024-03-07T01:28:22;27.47;;;20.60;;
71836;SDS011;59686;51.716;7.016;2024-03-07T01:30:48;27.37;;;19.80;;
71836;SDS011;59686;51.716;7.016;2024-03-07T01:33:15;25.70;;;20.00;;
71836;SDS011;59686;51.716;7.016;2024-03-07T01:35:41;29.50;;;20.00;;
71836;SDS011;59686;51.716;7.016;2024-03-07T01:38:06;29.77;;;20.13;;
71836;SDS011;59686;51.716;7.016;2024-03-07T01:40:34;27.90;;;19.23;;
71836;SDS011;59686;51.716;7.016;2024-03-07T01:43:01;30.87;;;20.43;;
71836;SDS011;59686;51.716;7.016;2024-03-07T01:45:27;26.93;;;19.47;;
71836;SDS011;59686;51.716;7.016;2024-03-07T01:47:53;31.60;;;22.10;;
71836;SDS011;59686;51.716;7.016;2024-03-07T01:50:20;25.57;;;19.47;;
71836;SDS011;59686;51.716;7.016;2024-03-07T01:52:46;26.17;;;19.77;;
71836;SDS011;59686;51.716;7.016;2024-03-07T01:55:16;27.27;;;20.27;;
71836;SDS011;59686;51.716;7.016;2024-03-07T01:57:43;30.20;;;20.47;;
71836;SDS011;59686;51.716;7.016;2024-03-07T02:00:09;26.40;;;20.00;;
71836;SDS011;59686;51.716;7.016;2024-03-07T02:02:35;27.43;;;20.70;;
71836;SDS011;59686;51.716;7.016;2024-03-07T02:05:01;27.13;;;20.17;;
71836;SDS011;59686;51.716;7.016;2024-03-07T02:07:27;27.93;;;19.67;;
71836;SDS011;59686;51.716;7.016;2024-03-07T02:09:59;27.73;;;19.33;;
71836;SDS011;59686;51.716;7.016;2024-03-07T02:12:26;27.47;;;19.30;;
71836;SDS011;59686;51.716;7.016;2024-03-07T02:14:51;30.90;;;20.53;;
71836;SDS011;59686;51.716;7.016;2024-03-07T02:17:17;27.40;;;20.23;;
71836;SDS011;59686;51.716;7.016;2024-03-07T02:19:45;29.27;;;20.27;;
71836;SDS011;59686;51.716;7.016;2024-03-07T02:22:11;29.33;;;19.83;;
71836;SDS011;59686;51.716;7.016;2024-03-07T02:24:38;26.03;;;19.90;;
71836;SDS011;59686;51.716;7.016;2024-03-07T02:27:04;26.60;;;19.07;;
71836;SDS011;59686;51.716;7.016;2024-03-07T02:29:29;26.53;;;19.47;;
71836;SDS011;59686;51.716;7.016;2024-03-07T02:31:56;27.30;;;20.10;;
71836;SDS011;59686;51.716;7.016;2024-03-07T02:34:21;25.00;;;19.63;;
71836;SDS011;59686;51.716;7.016;2024-03-07T02:36:47;24.43;;;18.53;;
71836;SDS011;59686;51.716;7.016;2024-03-07T02:39:13;25.97;;;19.40;;
71836;SDS011;59686;51.716;7.016;2024-03-07T02:41:38;27.63;;;19.40;;
71836;SDS011;59686;51.716;7.016;2024-03-07T02:44:04;25.70;;;19.17;;
71836;SDS011;59686;51.716;7.016;2024-03-07T02:46:30;28.03;;;19.20;;
71836;SDS011;59686;51.716;7.016;2024-03-07T02:48:57;24.03;;;18.87;;
71836;SDS011;59686;51.716;7.016;2024-03-07T02:51:24;25.83;;;19.27;;
71836;SDS011;59686;51.716;7.016;2024-03-07T02:53:49;28.63;;;19.77;;
71836;SDS011;59686;51.716;7.016;2024-03-07T02:56:15;25.53;;;19.27;;
71836;SDS011;59686;51.716;7.016;2024-03-07T02:58:41;25.57;;;19.40;;
71836;SDS011;59686;51.716;7.016;2024-03-07T03:01:07;25.97;;;18.93;;
71836;SDS011;59686;51.716;7.016;2024-03-07T03:03:33;24.10;;;18.03;;
71836;SDS011;59686;51.716;7.016;2024-03-07T03:05:59;27.67;;;20.93;;
71836;SDS011;59686;51.716;7.016;2024-03-07T03:08:25;23.07;;;18.27;;
71836;SDS011;59686;51.716;7.016;2024-03-07T03:10:53;24.97;;;18.90;;
71836;SDS011;59686;51.716;7.016;2024-03-07T03:13:19;24.97;;;19.40;;
71836;SDS011;59686;51.716;7.016;2024-03-07T03:15:45;25.40;;;18.27;;
71836;SDS011;59686;51.716;7.016;2024-03-07T03:18:12;26.00;;;19.53;;
71836;SDS011;59686;51.716;7.016;2024-03-07T03:20:38;23.53;;;18.17;;
71836;SDS011;59686;51.716;7.016;2024-03-07T03:23:04;24.20;;;18.50;;
71836;SDS011;59686;51.716;7.016;2024-03-07T03:25:33;24.70;;;18.60;;
71836;SDS011;59686;51.716;7.016;2024-03-07T03:28:06;24.67;;;18.80;;
71836;SDS011;59686;51.716;7.016;2024-03-07T03:30:38;24.87;;;18.20;;
71836;SDS011;59686;51.716;7.016;2024-03-07T03:33:05;23.73;;;18.30;;
71836;SDS011;59686;51.716;7.016;2024-03-07T03:35:33;27.83;;;20.30;;
71836;SDS011;59686;51.716;7.016;2024-03-07T03:37:59;26.23;;;18.40;;
71836;SDS011;59686;51.716;7.016;2024-03-07T03:40:26;25.30;;;19.07;;
71836;SDS011;59686;51.716;7.016;2024-03-07T03:42:52;24.03;;;19.17;;
71836;SDS011;59686;51.716;7.016;2024-03-07T03:45:17;27.27;;;19.30;;
71836;SDS011;59686;51.716;7.016;2024-03-07T03:47:43;24.47;;;18.83;;
71836;SDS011;59686;51.716;7.016;2024-03-07T03:50:10;24.13;;;18.97;;
71836;SDS011;59686;51.716;7.016;2024-03-07T03:52:36;24.83;;;18.03;;
71836;SDS011;59686;51.716;7.016;2024-03-07T03:55:02;23.53;;;18.67;;
71836;SDS011;59686;51.716;7.016;2024-03-07T03:57:32;23.73;;;18.00;;
71836;SDS011;59686;51.716;7.016;2024-03-07T03:59:58;24.03;;;18.10;;
71836;SDS011;59686;51.716;7.016;2024-03-07T04:02:24;25.93;;;18.37;;
71836;SDS011;59686;51.716;7.016;2024-03-07T04:04:53;22.63;;;17.53;;
71836;SDS011;59686;51.716;7.016;2024-03-07T04:07:19;22.57;;;18.17;;
71836;SDS011;59686;51.716;7.016;2024-03-07T04:09:45;23.93;;;18.60;;
71836;SDS011;59686;51.716;7.016;2024-03-07T04:12:12;25.93;;;18.10;;
71836;SDS011;59686;51.716;7.016;2024-03-07T04:14:42;28.07;;;18.93;;
71836;SDS011;59686;51.716;7.016;2024-03-07T04:17:08;25.27;;;18.57;;
71836;SDS011;59686;51.716;7.016;2024-03-07T04:19:37;25.27;;;18.07;;
71836;SDS011;59686;51.716;7.016;2024-03-07T04:22:05;28.03;;;19.10;;
71836;SDS011;59686;51.716;7.016;2024-03-07T04:24:31;26.93;;;18.50;;
71836;SDS011;59686;51.716;7.016;2024-03-07T04:27:00;23.83;;;17.90;;
71836;SDS011;59686;51.716;7.016;2024-03-07T04:29:30;23.33;;;17.60;;
71836;SDS011;59686;51.716;7.016;2024-03-07T04:31:57;23.27;;;18.43;;
71836;SDS011;59686;51.716;7.016;2024-03-07T04:34:23;22.93;;;17.80;;
71836;SDS011;59686;51.716;7.016;2024-03-07T04:36:49;22.97;;;17.53;;
71836;SDS011;59686;51.716;7.016;2024-03-07T04:39:15;23.97;;;17.73;;
71836;SDS011;59686;51.716;7.016;2024-03-07T04:41:56;23.37;;;17.70;;
71836;SDS011;59686;51.716;7.016;2024-03-07T04:44:21;24.33;;;17.03;;
71836;SDS011;59686;51.716;7.016;2024-03-07T04:46:50;23.20;;;17.23;;
71836;SDS011;59686;51.716;7.016;2024-03-07T04:49:23;22.27;;;17.17;;
71836;SDS011;59686;51.716;7.016;2024-03-07T04:51:50;22.07;;;17.63;;
71836;SDS011;59686;51.716;7.016;2024-03-07T04:54:19;23.43;;;17.20;;
71836;SDS011;59686;51.716;7.016;2024-03-07T04:56:46;22.33;;;16.83;;
71836;SDS011;59686;51.716;7.016;2024-03-07T04:59:13;21.57;;;16.67;;
71836;SDS011;59686;51.716;7.016;2024-03-07T05:01:39;22.20;;;18.07;;
71836;SDS011;59686;51.716;7.016;2024-03-07T05:04:08;23.07;;;17.43;;
71836;SDS011;59686;51.716;7.016;2024-03-07T05:06:35;23.03;;;17.53;;
71836;SDS011;59686;51.716;7.016;2024-03-07T05:09:01;22.53;;;17.10;;
71836;SDS011;59686;51.716;7.016;2024-03-07T05:11:31;21.63;;;16.67;;
71836;SDS011;59686;51.716;7.016;2024-03-07T05:13:57;22.43;;;16.93;;
71836;SDS011;59686;51.716;7.016;2024-03-07T05:16:24;21.43;;;17.37;;
71836;SDS011;59686;51.716;7.016;2024-03-07T05:18:50;22.10;;;17.10;;
71836;SDS011;59686;51.716;7.016;2024-03-07T05:21:17;22.83;;;17.30;;
71836;SDS011;59686;51.716;7.016;2024-03-07T05:24:01;21.33;;;16.33;;
71836;SDS011;59686;51.716;7.016;2024-03-07T05:26:28;22.03;;;17.30;;
71836;SDS011;59686;51.716;7.016;2024-03-07T05:29:00;20.90;;;16.50;;
71836;SDS011;59686;51.716;7.016;2024-03-07T05:31:30;22.67;;;17.53;;
71836;SDS011;59686;51.716;7.016;2024-03-07T05:34:00;25.60;;;17.60;;
71836;SDS011;59686;51.716;7.016;2024-03-07T05:36:29;22.67;;;17.10;;
71836;SDS011;59686;51.716;7.016;2024-03-07T05:38:56;21.37;;;16.70;;
71836;SDS011;59686;51.716;7.016;2024-03-07T05:41:22;22.77;;;16.73;;
71836;SDS011;59686;51.716;7.016;2024-03-07T05:43:47;20.93;;;17.10;;
71836;SDS011;59686;51.716;7.016;2024-03-07T05:46:16;21.83;;;16.73;;
71836;SDS011;59686;51.716;7.016;2024-03-07T05:48:41;21.47;;;17.37;;
71836;SDS011;59686;51.716;7.016;2024-03-07T05:51:07;22.47;;;16.90;;
71836;SDS011;59686;51.716;7.016;2024-03-07T05:53:35;21.57;;;16.90;;
71836;SDS011;59686;51.716;7.016;2024-03-07T05:56:02;19.77;;;16.30;;
71836;SDS011;59686;51.716;7.016;2024-03-07T05:58:28;23.43;;;17.57;;
71836;SDS011;59686;51.716;7.016;2024-03-07T06:00:54;20.47;;;16.70;;
71836;SDS011;59686;51.716;7.016;2024-03-07T06:03:20;21.93;;;16.70;;
71836;SDS011;59686;51.716;7.016;2024-03-07T06:05:46;21.70;;;16.93;;
71836;SDS011;59686;51.716;7.016;2024-03-07T06:08:15;22.03;;;16.53;;
71836;SDS011;59686;51.716;7.016;2024-03-07T06:10:43;22.47;;;16.90;;
71836;SDS011;59686;51.716;7.016;2024-03-07T06:13:14;20.73;;;17.13;;
71836;SDS011;59686;51.716;7.016;2024-03-07T06:15:44;22.40;;;17.33;;
71836;SDS011;59686;51.716;7.016;2024-03-07T06:18:11;21.20;;;17.10;;
71836;SDS011;59686;51.716;7.016;2024-03-07T06:20:42;21.07;;;15.87;;
71836;SDS011;59686;51.716;7.016;2024-03-07T06:23:09;20.53;;;16.20;;
71836;SDS011;59686;51.716;7.016;2024-03-07T06:25:37;19.63;;;16.17;;
71836;SDS011;59686;51.716;7.016;2024-03-07T06:28:12;21.40;;;16.47;;
71836;SDS011;59686;51.716;7.016;2024-03-07T06:30:39;21.63;;;15.50;;
71836;SDS011;59686;51.716;7.016;2024-03-07T06:33:12;22.70;;;17.03;;
71836;SDS011;59686;51.716;7.016;2024-03-07T06:35:38;22.23;;;16.17;;
71836;SDS011;59686;51.716;7.016;2024-03-07T06:38:06;18.10;;;14.67;;
71836;SDS011;59686;51.716;7.016;2024-03-07T06:40:33;19.90;;;15.43;;
71836;SDS011;59686;51.716;7.016;2024-03-07T06:42:59;20.37;;;15.40;;
71836;SDS011;59686;51.716;7.016;2024-03-07T06:45:25;19.93;;;15.60;;
71836;SDS011;59686;51.716;7.016;2024-03-07T06:47:51;21.00;;;15.60;;
71836;SDS011;59686;51.716;7.016;2024-03-07T06:50:18;19.03;;;15.27;;
71836;SDS011;59686;51.716;7.016;2024-03-07T06:52:48;19.23;;;15.13;;
71836;SDS011;59686;51.716;7.016;2024-03-07T06:55:17;18.80;;;15.63;;
71836;SDS011;59686;51.716;7.016;2024-03-07T06:57:44;21.00;;;16.70;;
71836;SDS011;59686;51.716;7.016;2024-03-07T07:00:14;18.47;;;15.17;;
71836;SDS011;59686;51.716;7.016;2024-03-07T07:02:47;18.87;;;15.30;;
71836;SDS011;59686;51.716;7.016;2024-03-07T07:05:13;19.77;;;15.87;;
71836;SDS011;59686;51.716;7.016;2024-03-07T07:07:43;17.73;;;14.93;;
71836;SDS011;59686;51.716;7.016;2024-03-07T07:10:09;18.47;;;14.60;;
71836;SDS011;59686;51.716;7.016;2024-03-07T07:12:50;18.07;;;14.97;;
71836;SDS011;59686;51.716;7.016;2024-03-07T07:15:20;18.13;;;15.00;;
71836;SDS011;59686;51.716;7.016;2024-03-07T07:17:46;20.70;;;16.23;;
71836;SDS011;59686;51.716;7.016;2024-03-07T07:20:13;20.30;;;15.50;;
71836;SDS011;59686;51.716;7.016;2024-03-07T07:22:40;19.00;;;15.23;;
71836;SDS011;59686;51.716;7.016;2024-03-07T07:25:07;17.73;;;14.93;;
71836;SDS011;59686;51.716;7.016;2024-03-07T07:27:47;19.23;;;14.83;;
71836;SDS011;59686;51.716;7.016;2024-03-07T07:30:16;18.67;;;15.73;;
71836;SDS011;59686;51.716;7.016;2024-03-07T07:32:43;19.23;;;15.27;;
71836;SDS011;59686;51.716;7.016;2024-03-07T07:35:10;19.43;;;15.17;;
71836;SDS011;59686;51.716;7.016;2024-03-07T07:37:39;19.77;;;15.60;;
71836;SDS011;59686;51.716;7.016;2024-03-07T07:40:06;19.67;;;15.50;;
71836;SDS011;59686;51.716;7.016;2024-03-07T07:42:38;20.37;;;15.53;;
71836;SDS011;59686;51.716;7.016;2024-03-07T07:45:05;20.27;;;15.83;;
71836;SDS011;59686;51.716;7.016;2024-03-07T07:47:32;18.30;;;14.80;;
71836;SDS011;59686;51.716;7.016;2024-03-07T07:49:58;19.23;;;14.47;;
71836;SDS011;59686;51.716;7.016;2024-03-07T07:52:24;18.80;;;14.97;;
71836;SDS011;59686;51.716;7.016;2024-03-07T07:54:49;19.27;;;14.40;;
71836;SDS011;59686;51.716;7.016;2024-03-07T07:57:15;17.30;;;14.93;;
71836;SDS011;59686;51.716;7.016;2024-03-07T07:59:41;19.17;;;15.40;;
71836;SDS011;59686;51.716;7.016;2024-03-07T08:02:06;17.67;;;15.47;;
71836;SDS011;59686;51.716;7.016;2024-03-07T08:04:32;18.57;;;14.67;;
71836;SDS011;59686;51.716;7.016;2024-03-07T08:06:59;18.90;;;15.27;;
71836;SDS011;59686;51.716;7.016;2024-03-07T08:09:25;17.37;;;14.80;;
71836;SDS011;59686;51.716;7.016;2024-03-07T08:11:50;17.93;;;14.63;;
71836;SDS011;59686;51.716;7.016;2024-03-07T08:14:17;18.03;;;15.27;;
71836;SDS011;59686;51.716;7.016;2024-03-07T08:16:43;17.67;;;14.50;;
71836;SDS011;59686;51.716;7.016;2024-03-07T08:19:13;18.33;;;14.90;;
71836;SDS011;59686;51.716;7.016;2024-03-07T08:21:39;18.70;;;14.73;;
71836;SDS011;59686;51.716;7.016;2024-03-07T08:24:05;18.30;;;15.40;;
71836;SDS011;59686;51.716;7.016;2024-03-07T08:26:36;19.43;;;14.70;;
71836;SDS011;59686;51.716;7.016;2024-03-07T08:29:02;18.43;;;14.93;;
71836;SDS011;59686;51.716;7.016;2024-03-07T08:31:28;18.63;;;14.93;;
71836;SDS011;59686;51.716;7.016;2024-03-07T08:33:53;17.23;;;15.17;;
71836;SDS011;59686;51.716;7.016;2024-03-07T08:36:19;18.37;;;14.47;;
71836;SDS011;59686;51.716;7.016;2024-03-07T08:38:45;19.10;;;14.70;;
71836;SDS011;59686;51.716;7.016;2024-03-07T08:41:11;17.40;;;14.90;;
71836;SDS011;59686;51.716;7.016;2024-03-07T08:43:37;17.37;;;14.53;;
71836;SDS011;59686;51.716;7.016;2024-03-07T08:46:03;18.47;;;14.93;;
71836;SDS011;59686;51.716;7.016;2024-03-07T08:48:28;19.83;;;14.77;;
71836;SDS011;59686;51.716;7.016;2024-03-07T08:50:54;18.27;;;14.77;;
71836;SDS011;59686;51.716;7.016;2024-03-07T08:53:19;19.07;;;15.27;;
71836;SDS011;59686;51.716;7.016;2024-03-07T08:55:45;18.73;;;14.87;;
71836;SDS011;59686;51.716;7.016;2024-03-07T08:58:11;18.20;;;15.63;;
71836;SDS011;59686;51.716;7.016;2024-03-07T09:00:36;18.87;;;15.33;;
71836;SDS011;59686;51.716;7.016;2024-03-07T09:03:02;18.53;;;15.30;;
71836;SDS011;59686;51.716;7.016;2024-03-07T09:05:29;20.70;;;15.23;;
71836;SDS011;59686;51.716;7.016;2024-03-07T09:07:58;20.07;;;15.60;;
71836;SDS011;59686;51.716;7.016;2024-03-07T09:10:24;18.50;;;15.03;;
71836;SDS011;59686;51.716;7.016;2024-03-07T09:12:51;19.17;;;14.73;;
71836;SDS011;59686;51.716;7.016;2024-03-07T09:15:17;21.17;;;15.80;;
71836;SDS011;59686;51.716;7.016;2024-03-07T09:17:44;19.53;;;14.77;;
71836;SDS011;59686;51.716;7.016;2024-03-07T09:20:12;18.97;;;14.57;;
71836;SDS011;59686;51.716;7.016;2024-03-07T09:22:41;18.83;;;15.07;;
71836;SDS011;59686;51.716;7.016;2024-03-07T09:25:10;18.60;;;15.20;;
71836;SDS011;59686;51.716;7.016;2024-03-07T09:27:37;19.63;;;15.40;;
71836;SDS011;59686;51.716;7.016;2024-03-07T09:30:05;18.50;;;14.90;;
71836;SDS011;59686;51.716;7.016;2024-03-07T09:32:37;18.30;;;13.93;;
71836;SDS011;59686;51.716;7.016;2024-03-07T09:35:07;19.47;;;14.87;;
71836;SDS011;59686;51.716;7.016;2024-03-07T09:37:36;19.23;;;15.73;;
71836;SDS011;59686;51.716;7.016;2024-03-07T09:40:04;17.27;;;14.67;;
71836;SDS011;59686;51.716;7.016;2024-03-07T09:42:30;17.73;;;15.20;;
71836;SDS011;59686;51.716;7.016;2024-03-07T09:44:58;17.27;;;14.57;;
71836;SDS011;59686;51.716;7.016;2024-03-07T09:47:28;16.77;;;13.73;;
71836;SDS011;59686;51.716;7.016;2024-03-07T09:49:54;18.20;;;14.90;;
71836;SDS011;59686;51.716;7.016;2024-03-07T09:52:21;18.37;;;14.43;;
71836;SDS011;59686;51.716;7.016;2024-03-07T09:54:49;16.23;;;14.13;;
71836;SDS011;59686;51.716;7.016;2024-03-07T09:57:14;21.53;;;14.97;;
71836;SDS011;59686;51.716;7.016;2024-03-07T09:59:40;21.23;;;14.97;;
71836;SDS011;59686;51.716;7.016;2024-03-07T10:02:11;19.33;;;15.17;;
71836;SDS011;59686;51.716;7.016;2024-03-07T10:04:44;20.10;;;14.70;;
71836;SDS011;59686;51.716;7.016;2024-03-07T10:07:14;17.70;;;14.13;;
71836;SDS011;59686;51.716;7.016;2024-03-07T10:09:41;19.33;;;14.70;;
71836;SDS011;59686;51.716;7.016;2024-03-07T10:12:08;18.27;;;13.97;;
71836;SDS011;59686;51.716;7.016;2024-03-07T10:14:50;17.33;;;14.57;;
71836;SDS011;59686;51.716;7.016;2024-03-07T10:17:23;18.87;;;14.77;;
71836;SDS011;59686;51.716;7.016;2024-03-07T10:19:51;20.10;;;15.03;;
71836;SDS011;59686;51.716;7.016;2024-03-07T10:22:18;18.40;;;15.17;;
71836;SDS011;59686;51.716;7.016;2024-03-07T10:24:51;18.87;;;15.13;;
71836;SDS011;59686;51.716;7.016;2024-03-07T10:27:21;19.07;;;14.37;;
71836;SDS011;59686;51.716;7.016;2024-03-07T10:29:48;19.30;;;14.67;;
71836;SDS011;59686;51.716;7.016;2024-03-07T10:32:20;17.33;;;14.33;;
71836;SDS011;59686;51.716;7.016;2024-03-07T10:34:52;22.10;;;15.20;;
71836;SDS011;59686;51.716;7.016;2024-03-07T10:37:18;17.70;;;14.70;;
71836;SDS011;59686;51.716;7.016;2024-03-07T10:39:47;17.53;;;13.97;;
71836;SDS011;59686;51.716;7.016;2024-03-07T10:42:16;18.67;;;14.97;;
71836;SDS011;59686;51.716;7.016;2024-03-07T10:44:44;17.53;;;14.73;;
71836;SDS011;59686;51.716;7.016;2024-03-07T10:47:19;17.93;;;14.57;;
71836;SDS011;59686;51.716;7.016;2024-03-07T10:50:07;17.57;;;14.47;;
71836;SDS011;59686;51.716;7.016;2024-03-07T10:52:55;17.30;;;14.47;;
71836;SDS011;59686;51.716;7.016;2024-03-07T10:58:09;18.90;;;15.00;;
71836;SDS011;59686;51.716;7.016;2024-03-07T11:00:49;17.80;;;14.40;;
71836;SDS011;59686;51.716;7.016;2024-03-07T11:03:16;19.47;;;15.23;;
71836;SDS011;59686;51.716;7.016;2024-03-07T11:05:45;19.30;;;15.03;;
71836;SDS011;59686;51.716;7.016;2024-03-07T11:08:12;19.87;;;15.27;;
71836;SDS011;59686;51.716;7.016;2024-03-07T11:10:39;18.37;;;15.33;;
71836;SDS011;59686;51.716;7.016;2024-03-07T11:13:11;19.23;;;15.07;;
71836;SDS011;59686;51.716;7.016;2024-03-07T11:15:39;19.30;;;14.63;;
71836;SDS011;59686;51.716;7.016;2024-03-07T11:18:07;18.17;;;14.30;;
71836;SDS011;59686;51.716;7.016;2024-03-07T11:20:35;18.90;;;14.57;;
71836;SDS011;59686;51.716;7.016;2024-03-07T11:26:09;19.60;;;14.20;;
71836;SDS011;59686;51.716;7.016;2024-03-07T11:28:40;17.70;;;13.70;;
71836;SDS011;59686;51.716;7.016;2024-03-07T11:33:39;18.27;;;14.83;;
71836;SDS011;59686;51.716;7.016;2024-03-07T11:36:09;15.63;;;13.70;;
71836;SDS011;59686;51.716;7.016;2024-03-07T11:38:48;19.83;;;15.20;;
71836;SDS011;59686;51.716;7.016;2024-03-07T11:41:13;19.37;;;14.60;;
71836;SDS011;59686;51.716;7.016;2024-03-07T11:43:42;18.73;;;14.33;;
71836;SDS011;59686;51.716;7.016;2024-03-07T11:46:08;18.53;;;14.00;;
71836;SDS011;59686;51.716;7.016;2024-03-07T11:48:40;18.20;;;14.17;;
71836;SDS011;59686;51.716;7.016;2024-03-07T11:51:06;17.93;;;14.03;;
71836;SDS011;59686;51.716;7.016;2024-03-07T11:53:36;18.30;;;13.43;;
71836;SDS011;59686;51.716;7.016;2024-03-07T11:56:06;19.97;;;14.70;;
71836;SDS011;59686;51.716;7.016;2024-03-07T11:58:41;17.37;;;14.17;;
71836;SDS011;59686;51.716;7.016;2024-03-07T12:01:17;19.57;;;14.80;;
71836;SDS011;59686;51.716;7.016;2024-03-07T12:03:44;19.93;;;14.97;;
71836;SDS011;59686;51.716;7.016;2024-03-07T12:06:10;17.80;;;14.47;;
71836;SDS011;59686;51.716;7.016;2024-03-07T12:08:38;18.23;;;14.13;;
71836;SDS011;59686;51.716;7.016;2024-03-07T12:11:04;17.87;;;14.60;;
71836;SDS011;59686;51.716;7.016;2024-03-07T12:13:30;19.83;;;14.90;;
71836;SDS011;59686;51.716;7.016;2024-03-07T12:15:57;16.37;;;13.90;;
71836;SDS011;59686;51.716;7.016;2024-03-07T12:18:23;19.13;;;14.73;;
71836;SDS011;59686;51.716;7.016;2024-03-07T12:20:50;18.47;;;14.67;;
71836;SDS011;59686;51.716;7.016;2024-03-07T12:23:19;16.83;;;14.40;;
71836;SDS011;59686;51.716;7.016;2024-03-07T12:25:58;19.47;;;15.07;;
71836;SDS011;59686;51.716;7.016;2024-03-07T12:28:28;19.93;;;15.33;;
71836;SDS011;59686;51.716;7.016;2024-03-07T12:30:58;19.10;;;14.90;;
71836;SDS011;59686;51.716;7.016;2024-03-07T12:33:27;21.87;;;14.53;;
71836;SDS011;59686;51.716;7.016;2024-03-07T12:35:54;19.60;;;15.10;;
71836;SDS011;59686;51.716;7.016;2024-03-07T12:38:31;21.57;;;14.90;;
71836;SDS011;59686;51.716;7.016;2024-03-07T12:41:07;19.27;;;14.60;;
71836;SDS011;59686;51.716;7.016;2024-03-07T12:43:40;19.57;;;14.10;;
71836;SDS011;59686;51.716;7.016;2024-03-07T12:46:11;18.67;;;14.17;;
71836;SDS011;59686;51.716;7.016;2024-03-07T12:48:38;18.63;;;14.60;;
71836;SDS011;59686;51.716;7.016;2024-03-07T12:51:04;18.40;;;15.07;;
71836;SDS011;59686;51.716;7.016;2024-03-07T12:53:30;19.60;;;14.50;;
71836;SDS011;59686;51.716;7.016;2024-03-07T12:55:56;18.40;;;14.00;;
71836;SDS011;59686;51.716;7.016;2024-03-07T12:58:22;18.20;;;14.90;;
71836;SDS011;59686;51.716;7.016;2024-03-07T13:00:51;18.17;;;14.23;;
71836;SDS011;59686;51.716;7.016;2024-03-07T13:03:17;18.80;;;14.40;;
71836;SDS011;59686;51.716;7.016;2024-03-07T13:05:43;18.37;;;14.97;;
71836;SDS011;59686;51.716;7.016;2024-03-07T13:08:10;17.03;;;13.93;;
71836;SDS011;59686;51.716;7.016;2024-03-07T13:10:42;17.63;;;14.53;;
71836;SDS011;59686;51.716;7.016;2024-03-07T13:13:08;21.07;;;15.00;;
71836;SDS011;59686;51.716;7.016;2024-03-07T13:15:40;19.70;;;14.67;;
71836;SDS011;59686;51.716;7.016;2024-03-07T13:18:07;18.70;;;14.60;;
71836;SDS011;59686;51.716;7.016;2024-03-07T13:20:34;18.10;;;14.20;;
71836;SDS011;59686;51.716;7.016;2024-03-07T13:23:01;20.30;;;15.07;;
71836;SDS011;59686;51.716;7.016;2024-03-07T13:25:27;18.97;;;14.10;;
71836;SDS011;59686;51.716;7.016;2024-03-07T13:30:34;17.30;;;13.77;;
71836;SDS011;59686;51.716;7.016;2024-03-07T13:33:01;18.47;;;14.07;;
71836;SDS011;59686;51.716;7.016;2024-03-07T13:35:28;17.87;;;14.37;;
71836;SDS011;59686;51.716;7.016;2024-03-07T13:37:54;18.57;;;14.23;;
71836;SDS011;59686;51.716;7.016;2024-03-07T13:40:24;16.70;;;13.50;;
71836;SDS011;59686;51.716;7.016;2024-03-07T13:45:19;16.07;;;13.33;;
71836;SDS011;59686;51.716;7.016;2024-03-07T13:47:46;17.10;;;13.13;;
71836;SDS011;59686;51.716;7.016;2024-03-07T13:50:18;15.30;;;12.20;;
71836;SDS011;59686;51.716;7.016;2024-03-07T13:52:45;17.37;;;13.07;;
71836;SDS011;59686;51.716;7.016;2024-03-07T13:55:30;14.70;;;11.67;;
71836;SDS011;59686;51.716;7.016;2024-03-07T13:57:59;14.73;;;11.97;;
71836;SDS011;59686;51.716;7.016;2024-03-07T14:03:38;16.53;;;11.93;;
71836;SDS011;59686;51.716;7.016;2024-03-07T14:06:12;14.83;;;11.93;;
71836;SDS011;59686;51.716;7.016;2024-03-07T14:27:21;13.83;;;11.70;;
71836;SDS011;59686;51.716;7.016;2024-03-07T14:29:55;16.53;;;12.27;;
71836;SDS011;59686;51.716;7.016;2024-03-07T14:32:51;14.00;;;11.50;;
71836;SDS011;59686;51.716;7.016;2024-03-07T14:40:49;15.30;;;10.67;;
71836;SDS011;59686;51.716;7.016;2024-03-07T14:43:16;15.37;;;11.03;;
71836;SDS011;59686;51.716;7.016;2024-03-07T14:45:42;13.87;;;11.30;;
71836;SDS011;59686;51.716;7.016;2024-03-07T14:48:08;16.67;;;11.67;;
71836;SDS011;59686;51.716;7.016;2024-03-07T14:50:37;14.57;;;11.20;;
71836;SDS011;59686;51.716;7.016;2024-03-07T14:53:05;15.63;;;11.10;;
71836;SDS011;59686;51.716;7.016;2024-03-07T14:55:31;15.83;;;11.57;;
71836;SDS011;59686;51.716;7.016;2024-03-07T14:57:58;15.70;;;11.40;;
71836;SDS011;59686;51.716;7.016;2024-03-07T15:00:24;13.97;;;11.13;;
71836;SDS011;59686;51.716;7.016;2024-03-07T15:02:53;14.27;;;11.33;;
71836;SDS011;59686;51.716;7.016;2024-03-07T15:05:22;15.33;;;11.67;;